createdAt,value
2023-01-13T00:01:27.579Z,100143.88
2023-01-13T00:03:55.477Z,100164.19
2023-01-13T00:06:26.618Z,100158.56
2023-01-13T00:08:56.054Z,100148.50
2023-01-13T00:11:24.434Z,100134.97
2023-01-13T00:13:52.251Z,100150.50
2023-01-13T00:16:21.199Z,100126.75
2023-01-13T00:18:51.088Z,100140.56
2023-01-13T00:21:21.025Z,100136.84
2023-01-13T00:23:53.882Z,100132.38
2023-01-13T00:26:25.575Z,100132.38
2023-01-13T00:28:57.741Z,100126.75
2023-01-13T00:31:25.828Z,100113.50
2023-01-13T00:33:56.727Z,100122.44
2023-01-13T00:36:24.656Z,100118.84
2023-01-13T00:38:52.475Z,100127.03
2023-01-13T00:41:21.921Z,100138.00
2023-01-13T00:43:50.798Z,100140.72
2023-01-13T00:46:21.281Z,100133.38
2023-01-13T00:48:49.685Z,100128.91
2023-01-13T00:51:19.856Z,100124.31
2023-01-13T00:53:50.681Z,100132.50
2023-01-13T00:56:30.526Z,100125.31
2023-01-13T00:59:08.038Z,100108.03
2023-01-13T01:01:36.053Z,100129.06
2023-01-13T01:04:03.916Z,100128.38
2023-01-13T01:06:31.734Z,100133.84
2023-01-13T01:08:59.552Z,100122.91
2023-01-13T01:11:29.553Z,100143.78
2023-01-13T01:13:59.525Z,100121.19
2023-01-13T01:16:30.792Z,100112.84
2023-01-13T01:18:58.712Z,100124.06
2023-01-13T01:21:28.221Z,100122.19
2023-01-13T01:23:56.740Z,100128.66
2023-01-13T01:26:26.928Z,100139.47
2023-01-13T01:28:55.531Z,100156.03
2023-01-13T01:31:25.342Z,100135.16
2023-01-13T01:33:55.499Z,100145.22
2023-01-13T01:36:26.194Z,100141.63
2023-01-13T01:38:54.073Z,100130.84
2023-01-13T01:41:24.214Z,100120.59
2023-01-13T01:43:59.687Z,100093.41
2023-01-13T01:46:29.182Z,100120.94
2023-01-13T01:49:02.154Z,100132.72
2023-01-13T01:51:35.266Z,100148.28
2023-01-13T01:54:05.727Z,100155.63
2023-01-13T01:56:35.959Z,100167.56
2023-01-13T01:59:03.812Z,100160.50
2023-01-13T02:01:33.652Z,100154.03
2023-01-13T02:04:10.540Z,100143.09
2023-01-13T02:06:39.190Z,100148.84
2023-01-13T02:09:08.103Z,100149.03
2023-01-13T02:11:54.339Z,100153.63
2023-01-13T02:14:24.530Z,100154.78
2023-01-13T02:16:59.860Z,100150.81
2023-01-13T02:19:56.018Z,100158.13
2023-01-13T02:22:40.216Z,100133.19
2023-01-13T02:25:27.833Z,100151.47
2023-01-13T02:28:15.309Z,100153.66
2023-01-13T02:31:06.697Z,100155.66
2023-01-13T02:33:47.295Z,100154.25
2023-01-13T02:36:25.106Z,100154.41
2023-01-13T02:38:59.386Z,100154.69
2023-01-13T02:41:50.973Z,100151.22
2023-01-13T02:44:25.788Z,100154.28
2023-01-13T02:46:58.765Z,100150.69
2023-01-13T02:49:34.783Z,100145.34
2023-01-13T02:52:09.616Z,100145.78
2023-01-13T02:54:40.347Z,100145.97
2023-01-13T02:57:12.795Z,100140.63
2023-01-13T02:59:42.530Z,100140.91
2023-01-13T03:02:16.428Z,100129.97
2023-01-13T03:05:02.380Z,100138.50
2023-01-13T03:07:47.937Z,100143.25
2023-01-13T03:10:28.654Z,100142.38
2023-01-13T03:13:03.340Z,100138.91
2023-01-13T03:15:43.871Z,100130.72
2023-01-13T03:18:25.931Z,100126.41
2023-01-13T03:21:05.000Z,100121.13
2023-01-13T03:23:38.464Z,100114.06
2023-01-13T03:26:12.619Z,100117.78
2023-01-13T03:28:45.674Z,100128.00
2023-01-13T03:31:17.353Z,100122.72
2023-01-13T03:33:52.238Z,100133.78
2023-01-13T03:36:25.725Z,100138.38
2023-01-13T03:38:55.795Z,100135.06
2023-01-13T03:41:30.717Z,100135.94
2023-01-13T03:44:23.364Z,100134.34
2023-01-13T03:47:01.449Z,100137.38
2023-01-13T03:49:37.561Z,100140.13
2023-01-13T03:52:10.885Z,100138.38
2023-01-13T03:54:45.398Z,100144.84
2023-01-13T03:57:16.579Z,100142.13
2023-01-13T03:59:49.834Z,100137.66
2023-01-13T04:02:26.559Z,100138.66
2023-01-13T04:05:00.562Z,100136.06
2023-01-13T04:07:38.114Z,100143.44
2023-01-13T04:10:09.562Z,100135.53
2023-01-13T04:12:59.178Z,100141.84
2023-01-13T04:15:29.612Z,100154.91
2023-01-13T04:18:03.820Z,100156.50
2023-01-13T04:20:32.993Z,100147.72
2023-01-13T04:23:02.648Z,100154.34
2023-01-13T04:25:30.547Z,100151.63
2023-01-13T04:27:58.319Z,100154.47
2023-01-13T04:30:26.168Z,100154.47
2023-01-13T04:32:54.167Z,100149.13
2023-01-13T04:35:22.044Z,100144.69
2023-01-13T04:37:51.162Z,100141.94
2023-01-13T04:40:19.184Z,100137.66
2023-01-13T04:42:46.986Z,100147.72
2023-01-13T04:45:15.659Z,100145.13
2023-01-13T04:47:43.448Z,100149.72
2023-01-13T04:50:12.164Z,100148.84
2023-01-13T04:52:40.336Z,100148.13
2023-01-13T04:55:11.671Z,100142.66
2023-01-13T04:57:39.530Z,100154.72
2023-01-13T05:00:09.789Z,100161.06
2023-01-13T05:02:37.646Z,100173.16
2023-01-13T05:05:06.084Z,100155.75
2023-01-13T05:07:34.024Z,100137.78
2023-01-13T05:10:01.851Z,100117.81
2023-01-13T05:12:48.556Z,100133.19
2023-01-13T05:15:34.637Z,100134.34
2023-01-13T05:18:03.208Z,100144.38
2023-01-13T05:20:31.088Z,100136.19
2023-01-13T05:23:16.508Z,100141.78
2023-01-13T05:25:44.793Z,100141.09
2023-01-13T05:28:13.979Z,100131.75
2023-01-13T05:30:43.894Z,100143.66
2023-01-13T05:33:12.540Z,100140.06
2023-01-13T05:35:41.834Z,100146.41
2023-01-13T05:38:10.660Z,100140.06
2023-01-13T05:40:59.046Z,100151.84
2023-01-13T05:43:29.302Z,100161.91
2023-01-13T05:46:01.463Z,100151.84
2023-01-13T05:48:31.713Z,100152.16
2023-01-13T05:51:00.119Z,100156.63
2023-01-13T05:53:28.345Z,100157.63
2023-01-13T05:55:56.167Z,100154.88
2023-01-13T05:58:26.296Z,100153.88
2023-01-13T06:01:01.064Z,100157.31
2023-01-13T06:03:28.943Z,100159.47
2023-01-13T06:05:59.309Z,100158.63
2023-01-13T06:08:28.582Z,100162.34
2023-01-13T06:10:56.419Z,100165.94
2023-01-13T06:13:25.213Z,100167.81
2023-01-13T06:15:56.306Z,100180.59
2023-01-13T06:18:25.774Z,100173.41
2023-01-13T06:20:53.553Z,100179.00
2023-01-13T06:23:21.488Z,100169.94
2023-01-13T06:25:56.945Z,100178.88
2023-01-13T06:28:25.019Z,100181.03
2023-01-13T06:30:57.260Z,100190.78
2023-01-13T06:33:31.082Z,100190.09
2023-01-13T06:36:05.232Z,100184.63
2023-01-13T06:38:37.177Z,100182.91
2023-01-13T06:41:07.222Z,100182.16
2023-01-13T06:43:34.191Z,100183.03
2023-01-13T06:46:02.394Z,100186.75
2023-01-13T06:48:35.274Z,100189.34
2023-01-13T06:51:03.598Z,100191.50
2023-01-13T06:53:31.419Z,100188.91
2023-01-13T06:55:59.306Z,100186.16
2023-01-13T06:58:27.174Z,100188.06
2023-01-13T07:00:55.192Z,100185.34
2023-01-13T07:03:23.023Z,100186.47
2023-01-13T07:05:56.380Z,100185.47
2023-01-13T07:08:24.677Z,100199.25
2023-01-13T07:10:52.924Z,100202.13
2023-01-13T07:13:38.888Z,100204.84
2023-01-13T07:16:08.952Z,100211.44
2023-01-13T07:18:37.205Z,100206.97
2023-01-13T07:21:07.997Z,100199.66
2023-01-13T07:23:37.803Z,100200.69
2023-01-13T07:26:06.233Z,100194.34
2023-01-13T07:28:34.985Z,100200.81
2023-01-13T07:31:02.860Z,100200.94
2023-01-13T07:33:33.871Z,100204.69
2023-01-13T07:36:03.349Z,100220.19
2023-01-13T07:38:33.736Z,100211.13
2023-01-13T07:41:24.046Z,100215.00
2023-01-13T07:43:51.837Z,100223.34
2023-01-13T07:46:20.260Z,100217.88
2023-01-13T07:48:48.977Z,100226.06
2023-01-13T07:51:16.955Z,100228.94
2023-01-13T07:53:46.204Z,100237.13
2023-01-13T07:56:14.077Z,100242.72
2023-01-13T07:58:41.962Z,100240.97
2023-01-13T08:01:10.880Z,100240.09
2023-01-13T08:03:39.207Z,100237.50
2023-01-13T08:06:07.735Z,100233.09
2023-01-13T08:08:35.702Z,100231.34
2023-01-13T08:11:07.379Z,100245.88
2023-01-13T08:13:35.501Z,100235.09
2023-01-13T08:16:05.984Z,100253.19
2023-01-13T08:18:35.416Z,100241.53
2023-01-13T08:21:05.527Z,100259.63
2023-01-13T08:23:33.457Z,100256.03
2023-01-13T08:26:02.627Z,100257.78
2023-01-13T08:28:32.225Z,100264.09
2023-01-13T08:31:01.016Z,100259.50
2023-01-13T08:33:29.247Z,100269.56
2023-01-13T08:35:57.152Z,100271.41
2023-01-13T08:38:25.728Z,100263.94
2023-01-13T08:40:53.682Z,100266.66
2023-01-13T08:43:24.036Z,100269.38
2023-01-13T08:46:04.059Z,100276.31
2023-01-13T08:48:32.379Z,100272.97
2023-01-13T08:51:04.278Z,100280.78
2023-01-13T08:53:32.435Z,100277.44
2023-01-13T08:56:00.367Z,100281.78
2023-01-13T08:58:28.238Z,100270.00
2023-01-13T09:00:56.137Z,100277.19
2023-01-13T09:03:25.539Z,100284.25
2023-01-13T09:05:53.299Z,100288.97
2023-01-13T09:08:21.251Z,100283.38
2023-01-13T09:10:49.087Z,100287.97
2023-01-13T09:13:17.119Z,100293.28
2023-01-13T09:15:47.227Z,100284.06
2023-01-13T09:18:15.216Z,100298.75
2023-01-13T09:20:44.703Z,100291.41
2023-01-13T09:23:12.604Z,100290.41
2023-01-13T09:25:40.929Z,100292.13
2023-01-13T09:28:09.234Z,100289.41
2023-01-13T09:30:38.161Z,100289.13
2023-01-13T09:33:23.613Z,100298.19
2023-01-13T09:35:52.786Z,100292.72
2023-01-13T09:38:20.627Z,100294.47
2023-01-13T09:40:50.123Z,100291.44
2023-01-13T09:43:39.588Z,100305.81
2023-01-13T09:46:36.292Z,100293.03
2023-01-13T09:49:05.372Z,100299.50
2023-01-13T09:51:40.943Z,100303.53
2023-01-13T09:54:16.128Z,100307.13
2023-01-13T09:56:44.201Z,100318.22
2023-01-13T09:59:13.113Z,100322.50
2023-01-13T10:01:48.519Z,100323.25
2023-01-13T10:04:17.043Z,100321.38
2023-01-13T10:06:51.153Z,100331.16
2023-01-13T10:09:24.739Z,100308.31
2023-01-13T10:12:12.870Z,100323.69
2023-01-13T10:14:43.715Z,100320.94
2023-01-13T10:17:19.870Z,100316.97
2023-01-13T10:19:52.552Z,100338.78
2023-01-13T10:22:37.250Z,100323.28
2023-01-13T10:25:42.690Z,100311.50
2023-01-13T10:28:13.071Z,100316.97
2023-01-13T10:30:42.758Z,100313.22
2023-01-13T10:33:13.204Z,100317.53
2023-01-13T10:35:56.620Z,100327.31
2023-01-13T10:38:28.307Z,100323.72
2023-01-13T10:40:58.831Z,100324.59
2023-01-13T10:43:28.191Z,100322.59
2023-01-13T10:46:05.145Z,100326.91
2023-01-13T10:48:35.878Z,100327.91
2023-01-13T10:51:29.464Z,100331.66
2023-01-13T10:54:01.436Z,100335.09
2023-01-13T10:56:32.604Z,100336.97
2023-01-13T10:59:18.971Z,100343.88
2023-01-13T11:02:01.178Z,100345.47
2023-01-13T11:04:33.995Z,100336.41
2023-01-13T11:07:03.562Z,100346.34
2023-01-13T11:09:33.617Z,100345.19
2023-01-13T11:12:02.997Z,100349.78
2023-01-13T11:14:39.507Z,100346.63
2023-01-13T11:17:22.159Z,100353.59
2023-01-13T11:19:55.113Z,100350.88
2023-01-13T11:22:28.077Z,100349.44
2023-01-13T11:24:59.342Z,100345.28
2023-01-13T11:27:39.281Z,100347.56
2023-01-13T11:30:18.489Z,100348.00
2023-01-13T11:33:02.337Z,100337.66
2023-01-13T11:35:32.792Z,100336.81
2023-01-13T11:38:07.583Z,100351.91
2023-01-13T11:40:41.626Z,100362.69
2023-01-13T11:43:19.652Z,100346.16
2023-01-13T11:45:51.831Z,100357.94
2023-01-13T11:48:23.967Z,100367.16
2023-01-13T11:51:00.092Z,100357.09
2023-01-13T11:53:54.816Z,100370.75
2023-01-13T11:56:44.212Z,100356.94
2023-01-13T11:59:45.956Z,100354.34
2023-01-13T12:02:34.077Z,100362.56
2023-01-13T12:05:13.423Z,100359.81
2023-01-13T12:07:49.819Z,100342.56
2023-01-13T12:10:30.026Z,100359.81
2023-01-13T12:13:08.818Z,100350.63
2023-01-13T12:15:57.210Z,100362.56
2023-01-13T12:18:38.336Z,100363.28
2023-01-13T12:21:16.463Z,100346.16
2023-01-13T12:23:51.504Z,100351.63
2023-01-13T12:26:19.408Z,100353.63
2023-01-13T12:28:52.472Z,100364.41
2023-01-13T12:31:21.672Z,100369.16
2023-01-13T12:34:05.714Z,100380.81
2023-01-13T12:36:40.235Z,100364.69
2023-01-13T12:39:19.916Z,100413.00
2023-01-13T12:42:10.711Z,100410.56
2023-01-13T12:45:20.564Z,100413.13
2023-01-13T12:47:49.569Z,100421.44
2023-01-13T12:50:41.803Z,100431.78
2023-01-13T12:53:38.477Z,100424.97
2023-01-13T12:56:40.881Z,100432.13
2023-01-13T12:59:34.560Z,100442.31
2023-01-13T13:02:34.622Z,100445.59
2023-01-13T13:05:37.563Z,100441.13
2023-01-13T13:08:14.600Z,100442.53
2023-01-13T13:10:56.521Z,100436.22
2023-01-13T13:13:42.699Z,100449.25
2023-01-13T13:16:46.590Z,100457.72
2023-01-13T13:19:45.030Z,100454.50
2023-01-13T13:22:38.165Z,100467.28
2023-01-13T13:25:26.340Z,100465.09
2023-01-13T13:28:06.896Z,100473.31
2023-01-13T13:30:37.579Z,100469.84
2023-01-13T13:33:22.243Z,100468.97
2023-01-13T13:36:05.908Z,100470.00
2023-01-13T13:39:20.255Z,100470.00
2023-01-13T13:42:08.894Z,100472.22
2023-01-13T13:45:00.579Z,100469.50
2023-01-13T13:47:36.264Z,100478.56
2023-01-13T13:50:09.993Z,100487.59
2023-01-13T13:52:42.788Z,100488.47
2023-01-13T13:55:18.501Z,100480.41
2023-01-13T13:57:49.164Z,100484.88
2023-01-13T14:00:24.127Z,100498.41
2023-01-13T14:02:55.248Z,100498.41
2023-01-13T14:05:25.555Z,100501.13
2023-01-13T14:08:01.377Z,100505.47
2023-01-13T14:10:36.008Z,100507.31
2023-01-13T14:13:14.975Z,100519.97
2023-01-13T14:15:43.239Z,100515.63
2023-01-13T14:18:14.961Z,100520.81
2023-01-13T14:20:43.316Z,100536.47
2023-01-13T14:23:18.588Z,100529.00
2023-01-13T14:25:49.771Z,100530.03
2023-01-13T14:28:25.385Z,100544.38
2023-01-13T14:30:54.250Z,100539.34
2023-01-13T14:33:25.337Z,100548.25
2023-01-13T14:36:15.085Z,100548.50
2023-01-13T14:38:47.212Z,100553.84
2023-01-13T14:41:26.743Z,100552.97
2023-01-13T14:43:58.499Z,100566.75
2023-01-13T14:46:37.017Z,100555.97
2023-01-13T14:49:05.295Z,100573.19
2023-01-13T14:51:33.219Z,100578.53
2023-01-13T14:54:02.524Z,100587.59
2023-01-13T14:56:52.764Z,100595.66
2023-01-13T14:59:45.095Z,100590.56
2023-01-13T15:02:38.260Z,100596.03
2023-01-13T15:05:32.147Z,100601.75
2023-01-13T15:08:03.231Z,100610.53
2023-01-13T15:10:34.622Z,100618.59
2023-01-13T15:13:05.601Z,100623.06
2023-01-13T15:15:35.869Z,100627.53
2023-01-13T15:18:11.566Z,100632.25
2023-01-13T15:20:41.200Z,100637.69
2023-01-13T15:23:09.702Z,100647.75
2023-01-13T15:25:41.071Z,100648.50
2023-01-13T15:28:15.664Z,100658.66
2023-01-13T15:30:43.554Z,100656.06
2023-01-13T15:33:14.031Z,100658.66
2023-01-13T15:35:44.931Z,100660.53
2023-01-13T15:38:14.074Z,100666.97
2023-01-13T15:40:43.592Z,100673.31
2023-01-13T15:43:32.279Z,100676.03
2023-01-13T15:46:18.423Z,100696.28
2023-01-13T15:48:46.474Z,100695.41
2023-01-13T15:51:21.184Z,100695.53
2023-01-13T15:53:49.016Z,100698.13
2023-01-13T15:56:24.363Z,100701.47
2023-01-13T15:58:52.248Z,100704.47
2023-01-13T16:01:20.187Z,100712.66
2023-01-13T16:03:48.186Z,100709.94
2023-01-13T16:06:19.451Z,100710.66
2023-01-13T16:08:47.391Z,100716.25
2023-01-13T16:11:15.323Z,100717.97
2023-01-13T16:13:44.674Z,100713.53
2023-01-13T16:16:19.562Z,100724.28
2023-01-13T16:18:47.836Z,100726.31
2023-01-13T16:21:16.026Z,100721.72
2023-01-13T16:23:43.919Z,100729.03
2023-01-13T16:26:21.776Z,100737.94
2023-01-13T16:28:52.293Z,100737.22
2023-01-13T16:31:25.141Z,100743.53
2023-01-13T16:33:52.918Z,100734.88
2023-01-13T16:36:22.205Z,100749.47
2023-01-13T16:38:51.953Z,100755.69
2023-01-13T16:41:20.332Z,100758.53
2023-01-13T16:43:48.718Z,100758.53
2023-01-13T16:46:26.898Z,100767.59
2023-01-13T16:48:57.107Z,100765.97
2023-01-13T16:51:25.717Z,100775.19
2023-01-13T16:53:53.955Z,100783.38
2023-01-13T16:56:26.798Z,100786.81
2023-01-13T16:58:55.460Z,100792.66
2023-01-13T17:01:29.547Z,100794.50
2023-01-13T17:03:59.009Z,100800.84
2023-01-13T17:06:30.847Z,100803.44
2023-01-13T17:09:02.937Z,100806.19
2023-01-13T17:11:30.825Z,100815.47
2023-01-13T17:13:58.619Z,100810.00
2023-01-13T17:16:28.325Z,100811.63
2023-01-13T17:18:56.289Z,100817.22
2023-01-13T17:21:24.277Z,100824.53
2023-01-13T17:23:52.634Z,100835.44
2023-01-13T17:26:33.240Z,100839.78
2023-01-13T17:29:02.060Z,100839.91
2023-01-13T17:31:31.530Z,100842.63
2023-01-13T17:33:59.429Z,100842.75
2023-01-13T17:36:27.389Z,100852.81
2023-01-13T17:38:56.096Z,100850.06
2023-01-13T17:41:24.269Z,100847.47
2023-01-13T17:43:52.885Z,100852.91
2023-01-13T17:46:23.032Z,100851.06
2023-01-13T17:48:52.843Z,100853.78
2023-01-13T17:51:22.501Z,100849.31
2023-01-13T17:53:50.367Z,100855.75
2023-01-13T17:56:18.856Z,100842.13
2023-01-13T17:58:46.803Z,100853.03
2023-01-13T18:01:16.749Z,100859.25
2023-01-13T18:03:44.997Z,100861.22
2023-01-13T18:06:17.871Z,100868.31
2023-01-13T18:08:45.866Z,100877.66
2023-01-13T18:11:13.967Z,100870.66
2023-01-13T18:13:42.895Z,100868.56
2023-01-13T18:16:13.992Z,100879.22
2023-01-13T18:18:43.656Z,100872.88
2023-01-13T18:21:37.229Z,100879.97
2023-01-13T18:24:22.719Z,100892.19
2023-01-13T18:27:08.408Z,100886.03
2023-01-13T18:29:38.983Z,100887.66
2023-01-13T18:32:09.425Z,100891.97
2023-01-13T18:34:37.372Z,100883.81
2023-01-13T18:37:08.391Z,100889.16
2023-01-13T18:39:37.358Z,100896.47
2023-01-13T18:42:23.660Z,100893.63
2023-01-13T18:44:52.523Z,100896.47
2023-01-13T18:47:20.363Z,100906.38
2023-01-13T18:49:48.873Z,100905.41
2023-01-13T18:52:18.108Z,100917.06
2023-01-13T18:54:45.985Z,100911.72
2023-01-13T18:57:14.320Z,100916.31
2023-01-13T18:59:42.214Z,100919.91
2023-01-13T19:02:15.374Z,100926.97
2023-01-13T19:04:43.816Z,100927.97
2023-01-13T19:07:13.374Z,100928.84
2023-01-13T19:09:43.170Z,100925.97
2023-01-13T19:12:12.923Z,100932.41
2023-01-13T19:14:42.326Z,100941.47
2023-01-13T19:17:12.719Z,100941.38
2023-01-13T19:19:42.204Z,100942.34
2023-01-13T19:22:11.085Z,100937.75
2023-01-13T19:24:41.837Z,100943.22
2023-01-13T19:27:11.912Z,100940.38
2023-01-13T19:29:43.212Z,100947.81
2023-01-13T19:32:20.674Z,100945.22
2023-01-13T19:34:51.213Z,100951.41
2023-01-13T19:37:20.333Z,100959.59
2023-01-13T19:39:48.332Z,100964.19
2023-01-13T19:42:35.066Z,100978.69
2023-01-13T19:45:25.578Z,100978.97
2023-01-13T19:47:53.409Z,100976.22
2023-01-13T19:50:21.446Z,100985.28
2023-01-13T19:52:49.317Z,100984.41
2023-01-13T19:55:17.192Z,100995.31
2023-01-13T19:57:46.402Z,100997.91
2023-01-13T20:00:20.637Z,100996.31
2023-01-13T20:02:49.838Z,100999.91
2023-01-13T20:05:21.433Z,101004.50
2023-01-13T20:07:50.694Z,100999.03
2023-01-13T20:10:20.260Z,101010.84
2023-01-13T20:12:49.869Z,101017.28
2023-01-13T20:15:17.894Z,101015.53
2023-01-13T20:17:45.863Z,101020.13
2023-01-13T20:20:15.920Z,101024.69
2023-01-13T20:22:43.873Z,101033.00
2023-01-13T20:25:13.247Z,101024.81
2023-01-13T20:27:41.439Z,101022.19
2023-01-13T20:30:13.548Z,101033.00
2023-01-13T20:32:41.723Z,101023.31
2023-01-13T20:35:10.584Z,101032.28
2023-01-13T20:37:40.479Z,101032.38
2023-01-13T20:40:11.243Z,101035.09
2023-01-13T20:42:44.628Z,101036.22
2023-01-13T20:45:17.396Z,101055.19
2023-01-13T20:47:45.853Z,101051.81
2023-01-13T20:50:16.550Z,101053.16
2023-01-13T20:52:44.554Z,101064.69
2023-01-13T20:55:12.634Z,101062.97
2023-01-13T20:57:40.762Z,101070.28
2023-01-13T21:00:13.936Z,101067.56
2023-01-13T21:02:43.958Z,101072.16
2023-01-13T21:05:11.935Z,101077.72
2023-01-13T21:07:39.789Z,101073.25
2023-01-13T21:10:11.258Z,101086.00
2023-01-13T21:12:57.033Z,101081.53
2023-01-13T21:15:25.747Z,101078.03
2023-01-13T21:18:12.416Z,101088.84
2023-01-13T21:20:40.565Z,101073.59
2023-01-13T21:23:10.638Z,101088.94
2023-01-13T21:25:40.392Z,101092.69
2023-01-13T21:28:13.408Z,101093.69
2023-01-13T21:30:41.308Z,101092.00
2023-01-13T21:33:13.757Z,101095.84
2023-01-13T21:35:41.689Z,101094.97
2023-01-13T21:38:11.625Z,101092.91
2023-01-13T21:40:39.477Z,101094.88
2023-01-13T21:43:25.011Z,101103.06
2023-01-13T21:46:10.476Z,101108.63
2023-01-13T21:48:39.902Z,101115.94
2023-01-13T21:51:07.667Z,101105.91
2023-01-13T21:53:35.561Z,101105.91
2023-01-13T21:56:03.419Z,101104.19
2023-01-13T21:58:31.246Z,101098.59
2023-01-13T22:01:04.913Z,101117.56
2023-01-13T22:03:54.606Z,101120.41
2023-01-13T22:06:24.491Z,101117.69
2023-01-13T22:08:53.904Z,101122.25
2023-01-13T22:11:22.875Z,101144.97
2023-01-13T22:14:10.298Z,101142.22
2023-01-13T22:16:41.742Z,101134.91
2023-01-13T22:19:11.415Z,101127.59
2023-01-13T22:21:41.228Z,101127.59
2023-01-13T22:24:09.630Z,101135.03
2023-01-13T22:26:37.568Z,101137.66
2023-01-13T22:29:05.445Z,101146.06
2023-01-13T22:31:33.466Z,101132.44
2023-01-13T22:34:01.533Z,101146.06
2023-01-13T22:36:29.357Z,101138.88
2023-01-13T22:39:00.523Z,101137.03
2023-01-13T22:41:32.924Z,101142.59
2023-01-13T22:44:04.640Z,101159.16
2023-01-13T22:46:35.159Z,101162.66
2023-01-13T22:49:06.117Z,101165.28
2023-01-13T22:51:34.307Z,101168.09
2023-01-13T22:54:03.773Z,101173.47
2023-01-13T22:56:31.634Z,101170.94
2023-01-13T22:59:06.582Z,101176.28
2023-01-13T23:01:43.285Z,101180.00
2023-01-13T23:04:12.975Z,101180.09
2023-01-13T23:06:41.524Z,101172.78
2023-01-13T23:09:14.080Z,101177.28
2023-01-13T23:11:42.476Z,101179.38
2023-01-13T23:14:12.878Z,101173.78
2023-01-13T23:16:43.079Z,101180.00
2023-01-13T23:19:12.278Z,101189.41
2023-01-13T23:21:48.230Z,101187.31
2023-01-13T23:24:17.981Z,101191.00
2023-01-13T23:26:45.766Z,101201.91
2023-01-13T23:29:14.572Z,101196.47
2023-01-13T23:31:43.165Z,101205.53
2023-01-13T23:34:11.030Z,101206.50
2023-01-13T23:36:41.191Z,101221.00
2023-01-13T23:39:09.937Z,101213.69
2023-01-13T23:41:40.620Z,101222.75
2023-01-13T23:44:13.576Z,101224.63
2023-01-13T23:46:56.748Z,101225.47
2023-01-13T23:49:24.688Z,101221.88
2023-01-13T23:51:53.013Z,101225.47
2023-01-13T23:54:21.219Z,101209.22
2023-01-13T23:56:52.510Z,101204.53
2023-01-13T23:59:20.537Z,101213.81
